Time;durP1;ratioP1;P1;durP2;ratioP2;P2;SDS_P1;SDS_P2;PMS_P1;PMS_P2;Temp;Humidity;BMP_temperature;BMP_pressure;BME280_temperature;BME280_humidity;BME280_pressure;Samples;Min_cycle;Max_cycle;Signal;HPM_P1;HPM_P2
2021/08/02 00:00:58;;;;;;;2.88;2.38;;;14.20;91.40;;;;;;4944869;28;20093;-73
2021/08/02 00:03:34;;;;;;;3.67;2.40;;;14.20;91.30;;;;;;4959794;28;20038;-72
2021/08/02 00:06:02;;;;;;;5.30;2.20;;;14.20;91.30;;;;;;4957050;28;20516;-73
2021/08/02 00:08:28;;;;;;;4.37;2.30;;;14.20;91.30;;;;;;4972014;28;20106;-73
2021/08/02 00:10:58;;;;;;;5.45;2.80;;;14.20;91.40;;;;;;4954742;28;20035;-73
2021/08/02 00:13:30;;;;;;;3.63;2.72;;;14.30;91.30;;;;;;4970654;28;20065;-73
2021/08/02 00:16:03;;;;;;;3.55;2.33;;;14.30;91.40;;;;;;4956197;28;20026;-73
2021/08/02 00:18:29;;;;;;;3.33;2.47;;;14.30;91.50;;;;;;4965395;28;20035;-73
2021/08/02 00:20:58;;;;;;;3.33;2.80;;;14.30;91.60;;;;;;4952498;28;20484;-74
2021/08/02 00:23:25;;;;;;;4.38;2.90;;;14.30;91.50;;;;;;4955562;28;20049;-73
2021/08/02 00:25:52;;;;;;;3.05;2.60;;;14.30;91.40;;;;;;4954222;28;20633;-73
2021/08/02 00:28:19;;;;;;;4.75;2.60;;;14.30;91.50;;;;;;4957217;28;20474;-73
2021/08/02 00:30:46;;;;;;;3.45;2.65;;;14.30;91.50;;;;;;4953978;28;21011;-72
2021/08/02 00:33:12;;;;;;;4.80;2.72;;;14.30;91.50;;;;;;4955821;28;20038;-73
2021/08/02 00:36:01;;;;;;;3.72;2.65;;;14.40;91.70;;;;;;4966249;28;20564;-72
2021/08/02 00:38:37;;;;;;;4.85;2.60;;;14.30;91.70;;;;;;4959213;28;20499;-73
2021/08/02 00:41:16;;;;;;;6.63;2.97;;;14.30;91.50;;;;;;4954838;28;20059;-73
2021/08/02 00:44:00;;;;;;;;;;;14.30;91.70;;;;;;4958963;28;20085;-73
2021/08/02 00:46:33;;;;;;;3.25;2.45;;;14.30;91.60;;;;;;4966646;28;19918;-73
2021/08/02 00:49:05;;;;;;;3.22;2.83;;;14.30;91.50;;;;;;4956397;28;20156;-73
2021/08/02 00:51:44;;;;;;;4.10;3.20;;;14.40;91.50;;;;;;4969934;28;20027;-72
2021/08/02 00:54:10;;;;;;;4.50;2.67;;;14.40;91.40;;;;;;4954933;28;20456;-74
2021/08/02 00:56:38;;;;;;;3.33;2.63;;;14.40;91.30;;;;;;4968783;28;20442;-74
2021/08/02 00:59:07;;;;;;;5.70;2.90;;;14.40;91.40;;;;;;4959982;28;20730;-73
2021/08/02 01:01:35;;;;;;;4.07;2.70;;;14.30;91.30;;;;;;4950972;28;20058;-74
2021/08/02 01:04:02;;;;;;;5.35;3.15;;;14.30;91.30;;;;;;4957183;28;20033;-72
2021/08/02 01:06:33;;;;;;;4.15;2.95;;;14.30;91.30;;;;;;4969877;28;20030;-73
2021/08/02 01:09:05;;;;;;;5.40;2.90;;;14.20;91.30;;;;;;4946824;28;20042;-74
2021/08/02 01:11:32;;;;;;;6.78;2.80;;;14.20;91.30;;;;;;4948486;28;20038;-73
2021/08/02 01:14:02;;;;;;;6.80;2.85;;;14.20;91.30;;;;;;4960185;28;20034;-74
2021/08/02 01:16:28;;;;;;;4.95;3.10;;;14.10;91.40;;;;;;4954128;28;20101;-73
2021/08/02 01:18:55;;;;;;;6.13;3.30;;;14.10;91.40;;;;;;4955836;28;20026;-75
2021/08/02 01:21:21;;;;;;;4.88;2.72;;;14.10;91.50;;;;;;4953651;28;20501;-74
2021/08/02 01:23:48;;;;;;;6.18;3.15;;;14.10;91.50;;;;;;4971035;28;20032;-73
2021/08/02 01:26:42;;;;;;;5.50;3.35;;;14.00;91.50;;;;;;4963091;28;20052;-73
2021/08/02 01:29:45;;;;;;;5.05;3.33;;;14.00;91.50;;;;;;4960183;28;20056;-73
2021/08/02 01:32:12;;;;;;;7.32;3.80;;;13.90;91.80;;;;;;4959648;28;20409;-73
2021/08/02 01:34:37;;;;;;;5.82;3.55;;;14.00;92.00;;;;;;4966479;28;20110;-73
2021/08/02 01:37:03;;;;;;;6.05;3.40;;;13.90;91.70;;;;;;4959971;28;20133;-72
2021/08/02 01:39:29;;;;;;;7.25;3.30;;;13.90;91.60;;;;;;4954507;28;20038;-73
2021/08/02 01:41:55;;;;;;;7.15;3.13;;;13.90;91.80;;;;;;4960077;28;20053;-72
2021/08/02 01:44:21;;;;;;;3.95;2.97;;;13.80;91.60;;;;;;4963942;28;20091;-73
2021/08/02 01:47:06;;;;;;;5.72;3.17;;;13.80;91.60;;;;;;4968314;28;20805;-72
2021/08/02 01:49:53;;;;;;;7.15;3.03;;;13.80;91.80;;;;;;4960472;28;20046;-73
2021/08/02 01:52:56;;;;;;;4.07;3.00;;;13.70;91.80;;;;;;4955178;28;20418;-73
2021/08/02 01:55:23;;;;;;;3.97;2.83;;;13.70;91.80;;;;;;4957589;28;20081;-75
2021/08/02 01:58:03;;;;;;;4.53;3.00;;;13.70;91.80;;;;;;4973267;28;20035;-72
2021/08/02 02:00:33;;;;;;;3.80;3.05;;;13.70;91.80;;;;;;4961145;28;20286;-73
2021/08/02 02:03:12;;;;;;;5.95;2.90;;;13.60;91.60;;;;;;4970134;28;20034;-73
2021/08/02 02:05:41;;;;;;;5.78;3.10;;;13.70;91.90;;;;;;4962149;28;20118;-73
2021/08/02 02:08:28;;;;;;;4.63;2.80;;;13.70;91.70;;;;;;4977047;28;20590;-74
2021/08/02 02:10:58;;;;;;;4.13;3.17;;;13.60;91.80;;;;;;4958557;28;20023;-72
2021/08/02 02:13:34;;;;;;;5.32;3.40;;;13.60;91.70;;;;;;4983040;28;20049;-72
2021/08/02 02:16:02;;;;;;;3.58;3.10;;;13.60;91.60;;;;;;4965996;28;20027;-73
2021/08/02 02:18:31;;;;;;;4.78;2.80;;;13.60;91.70;;;;;;4961237;28;20031;-74
2021/08/02 02:20:59;;;;;;;5.82;3.47;;;13.60;91.90;;;;;;4954377;28;20030;-72
2021/08/02 02:23:26;;;;;;;6.30;3.67;;;13.50;91.90;;;;;;4965895;28;20069;-74
2021/08/02 02:25:52;;;;;;;3.80;2.97;;;13.40;91.90;;;;;;4959520;28;20031;-73
2021/08/02 02:28:19;;;;;;;6.78;3.80;;;13.40;92.00;;;;;;4959053;28;20023;-73
2021/08/02 02:30:47;;;;;;;6.20;3.55;;;13.50;92.00;;;;;;4954344;28;20097;-74
2021/08/02 02:33:15;;;;;;;10.18;3.72;;;13.50;92.00;;;;;;4958955;28;20114;-74
2021/08/02 02:35:42;;;;;;;6.70;3.38;;;13.60;92.00;;;;;;4972839;28;20031;-73
2021/08/02 02:38:10;;;;;;;4.45;3.00;;;13.60;92.00;;;;;;4955340;28;20030;-73
2021/08/02 02:40:45;;;;;;;7.85;3.30;;;13.50;92.10;;;;;;4956507;28;20547;-73
2021/08/02 02:43:13;;;;;;;5.07;3.30;;;13.50;91.90;;;;;;4960842;28;21032;-74
2021/08/02 02:45:40;;;;;;;5.45;3.60;;;13.50;91.70;;;;;;4953798;28;20500;-75
2021/08/02 02:48:07;;;;;;;7.75;3.97;;;13.50;91.70;;;;;;4962286;28;20034;-73
2021/08/02 02:50:37;;;;;;;4.90;3.17;;;13.50;91.90;;;;;;4974150;28;20031;-74
2021/08/02 02:53:05;;;;;;;5.55;3.50;;;13.50;91.90;;;;;;4955681;28;20138;-73
2021/08/02 02:55:32;;;;;;;5.73;3.40;;;13.50;91.70;;;;;;4953681;28;20031;-73
2021/08/02 02:57:58;;;;;;;7.72;4.18;;;13.50;92.00;;;;;;4954518;28;20031;-75
2021/08/02 03:00:24;;;;;;;4.78;3.63;;;13.50;92.10;;;;;;4956317;28;20030;-73
2021/08/02 03:02:52;;;;;;;5.32;2.95;;;13.50;92.10;;;;;;4970735;28;20036;-73
2021/08/02 03:05:22;;;;;;;6.22;3.55;;;13.50;91.80;;;;;;4957360;28;20031;-74
2021/08/02 03:07:51;;;;;;;5.88;3.38;;;13.40;91.80;;;;;;4976304;28;20669;-73
2021/08/02 03:10:23;;;;;;;5.22;3.42;;;13.50;91.80;;;;;;4951270;28;20432;-73
2021/08/02 03:12:52;;;;;;;5.05;3.70;;;13.40;91.80;;;;;;4950529;28;20114;-74
2021/08/02 03:15:19;;;;;;;5.93;3.50;;;13.40;91.70;;;;;;4960020;28;20043;-73
2021/08/02 03:17:46;;;;;;;5.70;4.28;;;13.40;92.20;;;;;;4960758;28;20062;-73
2021/08/02 03:20:13;;;;;;;5.22;3.28;;;13.40;92.10;;;;;;4955235;28;20039;-74
2021/08/02 03:22:43;;;;;;;;;;;13.40;92.10;;;;;;4963910;28;20047;-75
2021/08/02 03:25:13;;;;;;;5.13;3.50;;;13.30;92.10;;;;;;4959360;28;19949;-74
2021/08/02 03:28:05;;;;;;;8.32;3.65;;;13.30;92.20;;;;;;4954868;28;20035;-74
2021/08/02 03:30:34;;;;;;;5.40;3.38;;;13.30;92.30;;;;;;4955603;28;20057;-73
2021/08/02 03:33:02;;;;;;;9.10;3.70;;;13.40;92.30;;;;;;4971931;28;20081;-73
2021/08/02 03:35:29;;;;;;;6.93;4.50;;;13.30;92.20;;;;;;4964055;28;21101;-73
2021/08/02 03:37:55;;;;;;;5.15;3.90;;;13.30;92.20;;;;;;4957990;28;20074;-72
2021/08/02 03:40:21;;;;;;;5.65;3.78;;;13.40;92.10;;;;;;4955055;28;20034;-72
2021/08/02 03:42:48;;;;;;;8.05;3.60;;;13.40;92.00;;;;;;4955145;28;20028;-72
2021/08/02 03:45:16;;;;;;;5.55;3.58;;;13.40;92.00;;;;;;4959363;28;20106;-73
2021/08/02 03:47:42;;;;;;;7.00;4.00;;;13.40;91.90;;;;;;4957187;28;20067;-72
2021/08/02 03:50:10;;;;;;;5.45;3.85;;;13.40;91.80;;;;;;4959798;28;20034;-74
2021/08/02 03:52:36;;;;;;;4.53;3.30;;;13.40;91.80;;;;;;4955842;28;20038;-73
2021/08/02 03:55:04;;;;;;;6.05;4.07;;;13.40;91.80;;;;;;4963652;28;20070;-75
2021/08/02 03:57:32;;;;;;;5.43;3.63;;;13.50;91.80;;;;;;4961433;28;20034;-73
2021/08/02 03:59:58;;;;;;;6.78;4.25;;;13.50;91.80;;;;;;4960117;28;20035;-72
2021/08/02 04:02:24;;;;;;;5.72;3.88;;;13.40;91.80;;;;;;4959288;28;20038;-73
2021/08/02 04:04:49;;;;;;;6.30;3.72;;;13.40;91.90;;;;;;4960615;28;20035;-71
2021/08/02 04:07:15;;;;;;;6.13;4.68;;;13.40;91.80;;;;;;4963364;28;20417;-72
2021/08/02 04:09:41;;;;;;;8.18;4.13;;;13.50;91.80;;;;;;4965668;28;20038;-72
2021/08/02 04:12:09;;;;;;;8.07;4.45;;;13.50;91.80;;;;;;4960268;28;20039;-73
2021/08/02 04:14:36;;;;;;;6.85;3.95;;;13.50;91.70;;;;;;4971818;28;20039;-73
2021/08/02 04:17:02;;;;;;;7.03;3.95;;;13.60;91.70;;;;;;4964792;28;20043;-73
2021/08/02 04:19:28;;;;;;;6.63;3.72;;;13.70;91.70;;;;;;4962584;28;20041;-73
2021/08/02 04:21:55;;;;;;;8.35;3.83;;;13.70;91.50;;;;;;4978360;28;20027;-73
2021/08/02 04:24:21;;;;;;;6.25;3.72;;;13.70;91.50;;;;;;4968198;28;20018;-73
2021/08/02 04:26:47;;;;;;;5.63;4.25;;;13.70;91.60;;;;;;4976526;28;20038;-72
2021/08/02 04:29:13;;;;;;;7.03;3.75;;;13.70;91.60;;;;;;4963794;28;20140;-75
2021/08/02 04:31:39;;;;;;;8.18;4.88;;;13.70;91.50;;;;;;4960146;28;20093;-74
2021/08/02 04:34:05;;;;;;;4.90;3.60;;;13.70;91.70;;;;;;4962322;28;20441;-73
2021/08/02 04:36:31;;;;;;;8.68;4.28;;;13.70;91.60;;;;;;4965760;28;20421;-74
2021/08/02 04:38:57;;;;;;;6.07;3.83;;;13.70;91.60;;;;;;4971821;28;20069;-74
2021/08/02 04:41:23;;;;;;;5.10;3.70;;;13.70;91.60;;;;;;4962089;28;20046;-73
2021/08/02 04:43:49;;;;;;;6.80;3.97;;;13.70;91.60;;;;;;4986687;28;20175;-73
2021/08/02 04:46:15;;;;;;;8.07;4.05;;;13.80;91.60;;;;;;4977149;28;20019;-74
2021/08/02 04:48:41;;;;;;;7.32;4.00;;;13.80;91.60;;;;;;4965759;28;20045;-71
2021/08/02 04:51:07;;;;;;;9.95;4.10;;;13.80;91.60;;;;;;4955917;28;20040;-75
2021/08/02 04:53:32;;;;;;;5.50;4.20;;;13.80;91.70;;;;;;4958602;28;20039;-73
2021/08/02 04:55:58;;;;;;;10.02;4.63;;;13.80;91.70;;;;;;4959376;28;20032;-73
2021/08/02 04:58:24;;;;;;;7.63;4.18;;;13.80;91.90;;;;;;4961828;28;20035;-74
2021/08/02 05:00:49;;;;;;;8.00;4.40;;;13.80;91.80;;;;;;4960148;28;20643;-75
2021/08/02 05:03:15;;;;;;;6.57;4.47;;;13.80;91.70;;;;;;4955410;28;20035;-74
2021/08/02 05:05:41;;;;;;;8.68;4.72;;;13.80;91.70;;;;;;4962734;28;21715;-75
2021/08/02 05:08:06;;;;;;;7.47;4.68;;;13.80;91.60;;;;;;4961927;28;20102;-72
2021/08/02 05:10:32;;;;;;;7.82;3.95;;;13.80;91.80;;;;;;4965025;28;20042;-74
2021/08/02 05:12:58;;;;;;;9.23;4.57;;;13.80;91.70;;;;;;4954730;28;20062;-73
2021/08/02 05:15:24;;;;;;;7.85;5.05;;;13.80;91.70;;;;;;4962875;28;20085;-75
2021/08/02 05:17:50;;;;;;;6.38;4.38;;;13.80;91.90;;;;;;4971363;28;20030;-75
2021/08/02 05:20:18;;;;;;;9.05;4.57;;;13.80;91.70;;;;;;4959541;28;20509;-75
2021/08/02 05:22:45;;;;;;;7.65;4.88;;;13.90;91.80;;;;;;4964491;28;20031;-73
2021/08/02 05:25:11;;;;;;;8.68;5.25;;;13.90;91.80;;;;;;4964996;28;20289;-73
2021/08/02 05:27:37;;;;;;;8.55;5.03;;;13.90;91.60;;;;;;4956088;28;20038;-73
2021/08/02 05:30:04;;;;;;;6.95;5.03;;;13.90;91.60;;;;;;4959510;28;20027;-74
2021/08/02 05:32:30;;;;;;;8.05;4.97;;;13.90;91.60;;;;;;4968045;28;20069;-75
2021/08/02 05:34:56;;;;;;;9.25;5.85;;;13.90;91.80;;;;;;4973564;28;20070;-74
2021/08/02 05:37:22;;;;;;;8.00;4.97;;;13.90;91.60;;;;;;4970845;28;20511;-73
2021/08/02 05:39:48;;;;;;;8.63;4.82;;;14.00;91.60;;;;;;4954684;28;20034;-74
2021/08/02 05:42:13;;;;;;;12.85;5.72;;;14.00;91.60;;;;;;4960685;28;20089;-74
2021/08/02 05:44:39;;;;;;;8.20;5.45;;;14.00;91.60;;;;;;4951038;28;20023;-74
2021/08/02 05:47:06;;;;;;;8.73;5.35;;;14.00;91.60;;;;;;4960200;28;20035;-75
2021/08/02 05:49:32;;;;;;;7.53;5.07;;;14.00;91.60;;;;;;4970059;28;20466;-75
2021/08/02 05:52:00;;;;;;;9.27;5.82;;;14.00;91.60;;;;;;4957873;28;20109;-73
2021/08/02 05:54:26;;;;;;;12.88;5.47;;;14.00;91.70;;;;;;4958112;28;20078;-74
2021/08/02 05:56:51;;;;;;;7.90;5.63;;;14.00;91.80;;;;;;4958615;28;20038;-75
2021/08/02 05:59:17;;;;;;;8.25;5.22;;;14.00;91.70;;;;;;4958805;28;20046;-74
2021/08/02 06:01:43;;;;;;;7.93;5.25;;;14.00;91.90;;;;;;4953356;28;20038;-74
2021/08/02 06:04:09;;;;;;;7.75;4.75;;;14.00;92.00;;;;;;4962724;28;20035;-74
2021/08/02 06:06:34;;;;;;;8.68;4.90;;;14.00;91.60;;;;;;4966946;28;20101;-74
2021/08/02 06:09:00;;;;;;;10.00;5.15;;;14.00;91.70;;;;;;4967423;28;20082;-74
2021/08/02 06:11:25;;;;;;;7.35;4.20;;;14.00;91.90;;;;;;4957854;28;20050;-74
2021/08/02 06:13:51;;;;;;;7.07;4.03;;;14.00;92.10;;;;;;4959087;28;20114;-74
2021/08/02 06:16:21;;;;;;;4.50;3.20;;;14.00;91.80;;;;;;4972827;28;20034;-73
2021/08/02 06:18:48;;;;;;;6.25;3.83;;;14.00;91.80;;;;;;4970016;28;20039;-73
2021/08/02 06:21:14;;;;;;;5.75;4.25;;;14.10;91.90;;;;;;4948768;28;20077;-74
2021/08/02 06:23:40;;;;;;;6.50;3.95;;;14.10;92.00;;;;;;4957193;28;20058;-75
2021/08/02 06:26:06;;;;;;;8.73;4.25;;;14.20;92.30;;;;;;4962061;28;20453;-73
2021/08/02 06:28:31;;;;;;;7.15;4.57;;;14.20;92.20;;;;;;4974379;28;20026;-74
2021/08/02 06:31:01;;;;;;;7.55;4.80;;;14.20;92.10;;;;;;4958578;28;20126;-73
2021/08/02 06:33:30;;;;;;;7.22;4.43;;;14.20;91.80;;;;;;4977848;28;20027;-74
2021/08/02 06:35:56;;;;;;;7.28;4.50;;;14.20;92.00;;;;;;4961823;28;20030;-72
2021/08/02 06:38:22;;;;;;;9.82;4.82;;;14.20;91.90;;;;;;4960058;28;20619;-74
2021/08/02 06:40:48;;;;;;;8.65;4.38;;;14.30;92.10;;;;;;4960933;28;20034;-73
2021/08/02 06:43:14;;;;;;;6.90;5.22;;;14.30;92.10;;;;;;4958293;28;20149;-74
2021/08/02 06:45:41;;;;;;;9.95;5.70;;;14.30;92.30;;;;;;4972016;28;20523;-73
2021/08/02 06:48:07;;;;;;;11.82;6.10;;;14.30;92.10;;;;;;4954394;28;20043;-74
2021/08/02 06:50:33;;;;;;;10.80;5.70;;;14.40;92.20;;;;;;4959254;28;20114;-73
2021/08/02 06:52:59;;;;;;;9.07;5.50;;;14.40;92.10;;;;;;4954444;28;20110;-73
2021/08/02 06:55:24;;;;;;;8.23;5.60;;;14.50;92.40;;;;;;4963616;28;20539;-74
2021/08/02 06:57:50;;;;;;;8.88;6.10;;;14.50;92.20;;;;;;4959778;28;20023;-74
2021/08/02 07:00:16;;;;;;;12.13;6.40;;;14.50;92.10;;;;;;4959993;28;20035;-74
2021/08/02 07:02:42;;;;;;;11.77;6.38;;;14.60;92.20;;;;;;4969805;28;20833;-75
2021/08/02 07:05:08;;;;;;;8.55;5.90;;;14.60;92.00;;;;;;4967718;28;20045;-75
2021/08/02 07:07:34;;;;;;;10.57;6.30;;;14.60;91.90;;;;;;4982021;28;20149;-74
2021/08/02 07:09:59;;;;;;;11.18;5.68;;;14.60;92.20;;;;;;4987389;28;20123;-73
2021/08/02 07:12:25;;;;;;;12.15;6.53;;;14.60;91.90;;;;;;4955590;28;20039;-75
2021/08/02 07:14:51;;;;;;;11.13;5.93;;;14.60;91.90;;;;;;4962344;28;20035;-73
2021/08/02 07:17:17;;;;;;;11.05;7.07;;;14.70;92.10;;;;;;4966497;28;20078;-74
2021/08/02 07:19:42;;;;;;;12.32;7.22;;;14.80;92.30;;;;;;4981309;28;20038;-73
2021/08/02 07:22:08;;;;;;;14.25;7.57;;;14.90;92.10;;;;;;4965661;28;20074;-73
2021/08/02 07:24:34;;;;;;;17.23;7.18;;;15.00;92.20;;;;;;4963534;28;20500;-73
2021/08/02 07:26:59;;;;;;;11.57;7.18;;;15.10;91.90;;;;;;4964462;28;20033;-74
2021/08/02 07:29:25;;;;;;;12.30;6.93;;;15.30;91.70;;;;;;4963845;28;20034;-74
2021/08/02 07:31:51;;;;;;;11.15;7.05;;;15.30;90.90;;;;;;4969903;28;20031;-73
2021/08/02 07:34:17;;;;;;;10.55;7.10;;;15.30;91.10;;;;;;4966228;28;20074;-74
2021/08/02 07:36:42;;;;;;;12.10;6.32;;;15.30;90.90;;;;;;4962340;28;20054;-74
2021/08/02 07:39:08;;;;;;;12.95;6.85;;;15.30;90.60;;;;;;4966996;28;20380;-74
2021/08/02 07:41:33;;;;;;;11.20;7.20;;;15.30;90.70;;;;;;4967836;28;20027;-75
2021/08/02 07:44:00;;;;;;;11.68;7.32;;;15.30;90.50;;;;;;4967078;28;20035;-74
2021/08/02 07:46:26;;;;;;;11.38;6.10;;;15.30;90.50;;;;;;4966395;28;20105;-74
2021/08/02 07:48:52;;;;;;;10.90;7.00;;;15.30;90.50;;;;;;4965568;28;20038;-75
2021/08/02 07:51:21;;;;;;;10.23;7.07;;;15.30;90.50;;;;;;4964351;28;20034;-73
2021/08/02 07:53:46;;;;;;;10.27;6.40;;;15.40;90.60;;;;;;4979274;28;20038;-74
2021/08/02 07:56:12;;;;;;;11.07;6.75;;;15.40;90.40;;;;;;4980399;28;20031;-74
2021/08/02 07:58:38;;;;;;;10.88;5.93;;;15.40;90.20;;;;;;4960849;28;20041;-74
2021/08/02 08:01:04;;;;;;;12.50;7.00;;;15.40;90.40;;;;;;4970460;28;20031;-73
2021/08/02 08:03:29;;;;;;;13.02;6.82;;;15.50;90.50;;;;;;4966730;28;20643;-73
2021/08/02 08:05:55;;;;;;;9.40;5.50;;;15.50;90.70;;;;;;4973780;28;20038;-73
2021/08/02 08:08:21;;;;;;;10.57;6.28;;;15.60;90.10;;;;;;4964452;28;20027;-74
2021/08/02 08:10:48;;;;;;;10.30;6.28;;;15.70;90.20;;;;;;4959839;28;20042;-74
2021/08/02 08:13:14;;;;;;;9.88;5.90;;;15.70;89.20;;;;;;4960574;28;20031;-74
2021/08/02 08:15:39;;;;;;;10.07;6.55;;;15.70;88.20;;;;;;4960057;28;20497;-74
2021/08/02 08:18:05;;;;;;;9.85;5.82;;;15.70;89.30;;;;;;4966690;28;20084;-75
2021/08/02 08:20:31;;;;;;;10.15;6.28;;;15.80;89.40;;;;;;4957155;28;20031;-75
2021/08/02 08:22:57;;;;;;;9.23;5.63;;;15.80;89.80;;;;;;4962605;28;20241;-75
2021/08/02 08:25:23;;;;;;;10.88;6.30;;;15.90;89.10;;;;;;4964441;28;20230;-74
2021/08/02 08:27:52;;;;;;;9.80;5.55;;;15.90;88.40;;;;;;4964238;28;20517;-75
2021/08/02 08:30:20;;;;;;;8.43;5.57;;;16.00;88.80;;;;;;4963087;28;20126;-74
2021/08/02 08:32:46;;;;;;;8.15;5.47;;;16.00;87.70;;;;;;4976318;28;20187;-75
2021/08/02 08:35:13;;;;;;;7.70;5.32;;;16.00;87.60;;;;;;4969601;28;20026;-74
2021/08/02 08:37:39;;;;;;;8.68;5.05;;;16.00;87.60;;;;;;4958870;28;20030;-74
2021/08/02 08:40:07;;;;;;;8.25;5.38;;;16.00;86.40;;;;;;4980775;28;20030;-75
2021/08/02 08:42:33;;;;;;;8.77;5.25;;;16.00;86.60;;;;;;4965915;28;20031;-74
2021/08/02 08:44:59;;;;;;;7.40;4.70;;;16.00;86.40;;;;;;4965016;28;20030;-74
2021/08/02 08:47:25;;;;;;;7.45;5.25;;;16.10;87.30;;;;;;4979784;28;20546;-74
2021/08/02 08:49:51;;;;;;;7.82;4.55;;;16.20;86.50;;;;;;4956051;28;20037;-74
2021/08/02 08:52:18;;;;;;;6.75;4.40;;;16.20;85.00;;;;;;4977371;28;20035;-74
2021/08/02 08:54:47;;;;;;;8.00;4.60;;;16.20;84.80;;;;;;4989068;28;20027;-74
2021/08/02 08:57:13;;;;;;;8.38;5.47;;;16.20;85.90;;;;;;4960134;28;20022;-75
2021/08/02 08:59:50;;;;;;;7.50;4.60;;;16.30;85.90;;;;;;4978124;28;20549;-74
2021/08/02 09:02:23;;;;;;;8.20;4.68;;;16.40;86.20;;;;;;4974249;28;20098;-73
2021/08/02 09:05:00;;;;;;;7.22;4.35;;;16.40;85.10;;;;;;4960260;28;20038;-74
2021/08/02 09:07:38;;;;;;;8.70;4.93;;;16.50;86.20;;;;;;4967721;28;20034;-73
2021/08/02 09:10:08;;;;;;;6.28;4.20;;;16.50;84.50;;;;;;4965383;28;20494;-73
2021/08/02 09:12:34;;;;;;;7.05;4.10;;;16.50;83.10;;;;;;4960379;28;20401;-73
2021/08/02 09:15:04;;;;;;;8.05;4.43;;;16.60;84.40;;;;;;4964633;28;20031;-73
2021/08/02 09:17:37;;;;;;;7.07;4.55;;;16.80;86.60;;;;;;4957215;28;20034;-74
2021/08/02 09:20:05;;;;;;;7.43;4.45;;;16.90;85.60;;;;;;4970510;28;20030;-73
2021/08/02 09:22:35;;;;;;;6.53;3.95;;;17.10;83.00;;;;;;4975964;28;20023;-73
2021/08/02 09:25:05;;;;;;;6.68;4.60;;;17.10;84.30;;;;;;4967998;28;20073;-74
2021/08/02 09:27:33;;;;;;;6.95;4.53;;;17.30;83.10;;;;;;4955078;28;20038;-73
2021/08/02 09:29:59;;;;;;;6.10;3.85;;;17.40;82.50;;;;;;4964343;28;20088;-75
2021/08/02 09:32:25;;;;;;;6.72;3.95;;;17.50;83.00;;;;;;4957434;28;20042;-74
2021/08/02 09:34:50;;;;;;;6.60;3.97;;;17.50;80.50;;;;;;4965199;28;20034;-74
2021/08/02 09:37:24;;;;;;;6.47;3.47;;;17.50;79.10;;;;;;4974133;28;20059;-74
2021/08/02 09:39:49;;;;;;;4.00;3.50;;;17.50;79.50;;;;;;4957102;28;20517;-74
2021/08/02 09:42:21;;;;;;;4.90;3.33;;;17.50;81.30;;;;;;4962660;28;20080;-74
2021/08/02 09:44:57;;;;;;;3.65;2.80;;;17.60;80.00;;;;;;4959121;28;20058;-75
2021/08/02 09:47:28;;;;;;;5.15;3.03;;;17.60;78.60;;;;;;4959947;28;20027;-74
2021/08/02 09:49:54;;;;;;;4.53;2.70;;;17.60;77.50;;;;;;4957827;28;20031;-75
2021/08/02 09:52:21;;;;;;;5.93;3.20;;;17.60;77.60;;;;;;4957114;28;20034;-74
2021/08/02 09:54:46;;;;;;;7.72;3.20;;;17.70;78.60;;;;;;4963594;28;20149;-74
2021/08/02 09:57:12;;;;;;;7.70;3.60;;;17.70;78.60;;;;;;4958888;28;20126;-74
2021/08/02 09:59:42;;;;;;;8.82;4.00;;;17.70;77.50;;;;;;4964865;28;20445;-75
2021/08/02 10:02:09;;;;;;;4.72;3.35;;;17.80;80.60;;;;;;4961489;28;20037;-74
2021/08/02 10:04:35;;;;;;;4.15;3.08;;;17.80;78.90;;;;;;4965319;28;20030;-74
2021/08/02 10:07:02;;;;;;;4.85;2.72;;;17.80;77.50;;;;;;4956084;28;20035;-75
2021/08/02 10:09:28;;;;;;;4.72;2.67;;;17.80;78.80;;;;;;4969750;28;20057;-75
2021/08/02 10:11:58;;;;;;;3.38;2.88;;;17.90;78.50;;;;;;4964646;28;20442;-74
2021/08/02 10:14:31;;;;;;;6.03;2.88;;;18.10;79.20;;;;;;4960611;28;20036;-75
2021/08/02 10:17:05;;;;;;;4.15;2.70;;;18.20;77.40;;;;;;4968643;28;20062;-74
2021/08/02 10:19:44;;;;;;;3.63;2.20;;;18.40;77.90;;;;;;4960381;28;20147;-73
2021/08/02 10:22:10;;;;;;;5.88;2.78;;;18.50;75.00;;;;;;4964224;28;20033;-74
2021/08/02 10:24:47;;;;;;;3.30;2.60;;;18.60;76.40;;;;;;4980879;28;20141;-75
2021/08/02 10:27:27;;;;;;;3.53;2.80;;;18.70;75.70;;;;;;4959250;28;20069;-75
2021/08/02 10:29:53;;;;;;;3.13;2.45;;;18.80;74.40;;;;;;4965023;28;20046;-75
2021/08/02 10:32:24;;;;;;;3.47;2.53;;;18.90;71.80;;;;;;4964298;28;20046;-76
2021/08/02 10:34:51;;;;;;;3.10;2.40;;;18.90;74.80;;;;;;4957515;28;20124;-75
2021/08/02 10:37:37;;;;;;;4.47;2.67;;;19.00;72.50;;;;;;4963159;28;20038;-75
2021/08/02 10:40:11;;;;;;;3.60;2.30;;;19.20;73.10;;;;;;4959003;28;20285;-76
2021/08/02 10:42:51;;;;;;;3.60;2.20;;;19.30;71.80;;;;;;4974770;28;20027;-76
2021/08/02 10:45:29;;;;;;;3.88;2.22;;;19.40;72.40;;;;;;4960711;28;20210;-77
2021/08/02 10:47:55;;;;;;;2.50;2.20;;;19.40;71.40;;;;;;4957232;28;20506;-74
2021/08/02 10:50:26;;;;;;;3.80;2.58;;;19.40;71.60;;;;;;4961708;28;20142;-75
2021/08/02 10:52:53;;;;;;;3.35;2.55;;;19.40;70.90;;;;;;4963122;28;20158;-77
2021/08/02 10:55:20;;;;;;;3.63;2.40;;;19.40;73.10;;;;;;4961869;28;20742;-74
2021/08/02 10:57:59;;;;;;;3.75;2.05;;;19.60;72.30;;;;;;4975185;28;20081;-74
2021/08/02 11:00:26;;;;;;;2.50;2.30;;;19.70;70.60;;;;;;4958798;28;20027;-79
2021/08/02 11:02:54;;;;;;;4.65;2.45;;;19.70;72.10;;;;;;4966492;28;20024;-75
2021/08/02 11:05:22;;;;;;;3.78;2.50;;;19.80;71.40;;;;;;4961917;28;20163;-80
2021/08/02 11:07:47;;;;;;;2.95;2.05;;;19.80;70.60;;;;;;4958114;28;20031;-76
2021/08/02 11:10:17;;;;;;;2.97;2.15;;;19.80;68.00;;;;;;4957978;28;20481;-75
2021/08/02 11:12:44;;;;;;;6.53;2.83;;;19.90;72.50;;;;;;4975312;28;20078;-74
2021/08/02 11:15:10;;;;;;;8.10;2.70;;;20.00;70.50;;;;;;4960577;28;20111;-75
2021/08/02 11:17:40;;;;;;;4.03;2.10;;;19.90;67.80;;;;;;4968260;28;20058;-76
2021/08/02 11:20:08;;;;;;;4.22;2.00;;;19.90;67.80;;;;;;4965937;28;20058;-75
2021/08/02 11:22:48;;;;;;;2.40;2.10;;;19.90;69.10;;;;;;4962433;28;20061;-76
2021/08/02 11:25:24;;;;;;;2.63;2.22;;;20.10;67.60;;;;;;4982246;28;21293;-74
2021/08/02 11:27:55;;;;;;;3.55;2.08;;;20.00;67.40;;;;;;4964797;28;20031;-76
2021/08/02 11:30:22;;;;;;;2.38;1.85;;;19.90;63.20;;;;;;4972811;28;20050;-76
2021/08/02 11:32:48;;;;;;;3.70;2.20;;;19.80;66.60;;;;;;4958592;28;20066;-75
2021/08/02 11:35:14;;;;;;;4.18;1.95;;;19.90;68.70;;;;;;4959425;28;20042;-75
2021/08/02 11:37:48;;;;;;;4.60;2.03;;;20.00;65.60;;;;;;4972490;28;20058;-75
2021/08/02 11:40:14;;;;;;;2.92;2.05;;;20.00;67.30;;;;;;4975896;28;20250;-75
2021/08/02 11:42:42;;;;;;;2.30;1.92;;;20.10;67.50;;;;;;4974563;28;20508;-75
2021/08/02 11:45:09;;;;;;;3.63;2.00;;;20.20;66.60;;;;;;4960386;28;20050;-75
2021/08/02 11:47:40;;;;;;;4.28;2.30;;;20.20;65.50;;;;;;4959920;28;20110;-75
2021/08/02 11:50:07;;;;;;;2.08;1.67;;;20.10;65.90;;;;;;4958241;28;20034;-75
2021/08/02 11:52:33;;;;;;;2.15;1.52;;;20.10;62.60;;;;;;4960782;28;20042;-75
2021/08/02 11:55:11;;;;;;;1.60;1.50;;;19.90;64.10;;;;;;4960067;28;20070;-75
2021/08/02 11:57:37;;;;;;;2.75;1.77;;;19.90;62.50;;;;;;4954782;28;20544;-76
2021/08/02 12:00:17;;;;;;;2.60;1.58;;;19.90;66.40;;;;;;4959405;28;20034;-75
2021/08/02 12:02:45;;;;;;;3.42;1.88;;;20.00;65.60;;;;;;4957948;28;20039;-75
2021/08/02 12:05:31;;;;;;;3.25;2.03;;;20.10;66.80;;;;;;4960809;28;20050;-74
2021/08/02 12:08:11;;;;;;;2.13;1.88;;;20.10;64.70;;;;;;4954532;28;20746;-74
2021/08/02 12:10:37;;;;;;;2.65;1.90;;;20.10;64.80;;;;;;4958446;28;20153;-74
2021/08/02 12:13:10;;;;;;;2.42;1.90;;;20.10;66.30;;;;;;4961364;28;20527;-74
2021/08/02 12:15:36;;;;;;;2.00;1.58;;;20.20;66.60;;;;;;4958892;28;20050;-75
2021/08/02 12:18:02;;;;;;;2.65;1.60;;;20.20;65.70;;;;;;4958581;28;20034;-74
2021/08/02 12:20:32;;;;;;;2.00;1.60;;;20.20;65.00;;;;;;4960349;28;20321;-75
2021/08/02 12:22:59;;;;;;;1.70;1.60;;;20.20;60.50;;;;;;4974943;28;20030;-74
2021/08/02 12:25:48;;;;;;;1.83;1.65;;;20.20;63.70;;;;;;4957850;28;20064;-75
2021/08/02 12:28:14;;;;;;;2.50;1.63;;;20.30;61.70;;;;;;4957167;28;20042;-76
2021/08/02 12:30:42;;;;;;;1.83;1.73;;;20.20;62.70;;;;;;4956612;28;20046;-75
2021/08/02 12:33:10;;;;;;;2.33;1.60;;;20.20;63.90;;;;;;4959201;28;20023;-76
2021/08/02 12:35:36;;;;;;;3.70;1.60;;;20.30;61.90;;;;;;4957883;28;20045;-76
2021/08/02 12:38:04;;;;;;;3.40;1.95;;;20.30;61.20;;;;;;4956406;28;20023;-76
2021/08/02 12:40:31;;;;;;;;;;;20.20;61.80;;;;;;4957137;28;20465;-75
2021/08/02 12:42:57;;;;;;;2.85;1.55;;;20.20;63.10;;;;;;4958255;28;20448;-75
2021/08/02 12:45:23;;;;;;;3.22;1.90;;;20.20;63.30;;;;;;4972229;28;20365;-75
2021/08/02 12:47:49;;;;;;;2.65;2.20;;;20.30;65.20;;;;;;4959058;28;20484;-76
2021/08/02 12:50:17;;;;;;;2.40;2.05;;;20.30;63.20;;;;;;4959306;28;20035;-75
2021/08/02 12:52:44;;;;;;;;;;;20.30;59.30;;;;;;4973828;28;20031;-75